CTU weather

Chengdu Shuangliu International Airport
Chengdu, Sichuan Province, China

Public forecast

Using degrees Celsius for public forecast. Weather courtesy of forecast.io.

METAR (pilot weather report)

Retrieved 2019/04/22 01:00 UTC (42 minutes ago):

ZUUU 220100Z VRB01MPS CAVOK 22/18 Q1009 NOSIG

TAF (pilot weather forecast)

Forecast is more than 12 hours old.

Retrieved 2019/04/21 00:00 UTC (1 day ago):

TAF ZUUU 212001Z 2200/2224 22002MPS 5000 BR SCT050 TX29/2207Z TN17/2222Z